Time;durP1;ratioP1;P1;durP2;ratioP2;P2;SDS_P1;SDS_P2;PMS_P1;PMS_P2;Temp;Humidity;BMP_temperature;BMP_pressure;BME280_temperature;BME280_humidity;BME280_pressure;Samples;Min_cycle;Max_cycle;Signal;HPM_P1;HPM_P2
2021/07/30 00:02:20;;;;;;;18.48;5.38;;;14.10;99.90;;;;;;5070556;28;20046;-69
2021/07/30 00:04:46;;;;;;;11.80;5.00;;;14.10;99.90;;;;;;5060315;28;20053;-68
2021/07/30 00:07:12;;;;;;;14.02;5.05;;;14.00;99.90;;;;;;5044678;28;20098;-69
2021/07/30 00:09:38;;;;;;;15.35;4.82;;;14.00;99.90;;;;;;5051274;28;20128;-68
2021/07/30 00:12:05;;;;;;;14.13;4.90;;;14.00;99.90;;;;;;5071951;28;20049;-68
2021/07/30 00:14:32;;;;;;;15.55;5.82;;;14.00;99.90;;;;;;5055013;28;20045;-68
2021/07/30 00:16:58;;;;;;;12.93;5.22;;;14.00;99.90;;;;;;5073497;28;20151;-69
2021/07/30 00:19:25;;;;;;;10.65;5.38;;;14.00;99.90;;;;;;5067104;28;20051;-68
2021/07/30 00:21:51;;;;;;;18.27;5.47;;;13.90;99.90;;;;;;5069599;28;20048;-68
2021/07/30 00:24:16;;;;;;;15.45;5.97;;;13.90;99.90;;;;;;5075462;28;20049;-67
2021/07/30 00:26:42;;;;;;;11.00;5.40;;;13.90;99.90;;;;;;5067694;28;20191;-68
2021/07/30 00:29:08;;;;;;;18.00;6.15;;;13.80;99.90;;;;;;5085120;28;20044;-68
2021/07/30 00:31:34;;;;;;;14.18;5.07;;;13.80;99.90;;;;;;5067313;28;20085;-69
2021/07/30 00:34:00;;;;;;;14.38;5.18;;;13.90;99.90;;;;;;5081741;28;20041;-68
2021/07/30 00:36:26;;;;;;;17.65;6.13;;;13.80;99.90;;;;;;5067087;28;20040;-68
2021/07/30 00:38:51;;;;;;;13.65;6.45;;;13.80;99.90;;;;;;5057910;28;20056;-68
2021/07/30 00:41:17;;;;;;;17.45;5.60;;;13.90;99.90;;;;;;5065684;28;20048;-68
2021/07/30 00:43:43;;;;;;;10.70;5.22;;;13.90;99.90;;;;;;5079230;28;20144;-69
2021/07/30 00:46:09;;;;;;;14.98;5.97;;;13.90;99.90;;;;;;5069154;28;20053;-69
2021/07/30 00:48:36;;;;;;;18.17;6.25;;;13.70;99.90;;;;;;5086783;28;20108;-68
2021/07/30 00:51:02;;;;;;;12.33;6.10;;;13.80;99.90;;;;;;5082736;28;20040;-67
2021/07/30 00:53:28;;;;;;;15.70;5.72;;;13.70;99.90;;;;;;5063285;28;20372;-68
2021/07/30 00:55:58;;;;;;;14.50;6.30;;;13.60;99.90;;;;;;5082735;28;20052;-69
2021/07/30 00:58:25;;;;;;;14.85;6.13;;;13.60;99.90;;;;;;5067035;28;20098;-68
2021/07/30 01:00:51;;;;;;;25.33;6.75;;;13.60;99.90;;;;;;5079906;28;20052;-69
2021/07/30 01:03:17;;;;;;;14.07;6.25;;;13.60;99.90;;;;;;5064337;28;20408;-69
2021/07/30 01:05:44;;;;;;;20.83;6.13;;;13.60;99.90;;;;;;5069799;28;20045;-68
2021/07/30 01:08:10;;;;;;;12.50;6.80;;;13.50;99.90;;;;;;5064486;28;20049;-69
2021/07/30 01:10:36;;;;;;;15.55;6.20;;;13.50;99.90;;;;;;5058320;28;20051;-68
2021/07/30 01:13:02;;;;;;;18.63;6.65;;;13.40;99.90;;;;;;5066460;28;20068;-68
2021/07/30 01:15:27;;;;;;;17.65;6.68;;;13.40;99.90;;;;;;5071115;28;20037;-68
2021/07/30 01:17:54;;;;;;;17.60;7.07;;;13.40;99.90;;;;;;5068818;28;20041;-69
2021/07/30 01:20:25;;;;;;;18.08;6.43;;;13.40;99.90;;;;;;5065942;28;20520;-69
2021/07/30 01:22:56;;;;;;;15.07;6.95;;;13.30;99.90;;;;;;5069789;28;20056;-69
2021/07/30 01:25:23;;;;;;;14.70;6.43;;;13.30;99.90;;;;;;5063747;28;20049;-68
2021/07/30 01:27:50;;;;;;;14.18;6.50;;;13.30;99.90;;;;;;5070779;28;20049;-68
2021/07/30 01:30:20;;;;;;;14.30;6.90;;;13.30;99.90;;;;;;5058969;28;20038;-68
2021/07/30 01:32:46;;;;;;;16.00;7.05;;;13.20;99.90;;;;;;5052569;28;20092;-68
2021/07/30 01:35:12;;;;;;;24.35;7.20;;;13.20;99.90;;;;;;5065664;28;20113;-69
2021/07/30 01:37:38;;;;;;;18.67;7.00;;;13.20;99.90;;;;;;5079901;28;20044;-68
2021/07/30 01:40:05;;;;;;;19.00;7.75;;;13.10;99.90;;;;;;5082304;28;20071;-69
2021/07/30 01:42:32;;;;;;;22.08;8.35;;;13.10;99.90;;;;;;5081802;28;20067;-68
2021/07/30 01:44:58;;;;;;;17.15;7.75;;;13.10;99.90;;;;;;5076586;28;20037;-68
2021/07/30 01:47:25;;;;;;;16.85;7.38;;;13.10;99.90;;;;;;5053525;28;20047;-69
2021/07/30 01:49:51;;;;;;;17.88;7.40;;;13.10;99.90;;;;;;5073869;28;20045;-68
2021/07/30 01:52:17;;;;;;;17.30;7.85;;;13.20;99.90;;;;;;5058165;28;20055;-69
2021/07/30 01:54:44;;;;;;;25.30;8.25;;;13.10;99.90;;;;;;5073890;28;20045;-68
2021/07/30 01:57:10;;;;;;;18.73;7.32;;;13.10;99.90;;;;;;5069612;28;20040;-69
2021/07/30 01:59:37;;;;;;;21.42;8.50;;;13.10;99.90;;;;;;5061915;28;20044;-68
2021/07/30 02:02:03;;;;;;;18.10;8.43;;;13.00;99.90;;;;;;5062516;28;20060;-68
2021/07/30 02:04:29;;;;;;;15.07;8.00;;;13.00;99.90;;;;;;5051511;28;20071;-69
2021/07/30 02:06:54;;;;;;;32.97;8.85;;;13.00;99.90;;;;;;5056683;28;20045;-69
2021/07/30 02:09:20;;;;;;;21.50;8.93;;;13.00;99.90;;;;;;5056780;28;20041;-70
2021/07/30 02:11:53;;;;;;;16.48;8.30;;;13.10;99.90;;;;;;5062911;28;20679;-68
2021/07/30 02:14:25;;;;;;;17.25;8.45;;;13.00;99.90;;;;;;5056184;28;20056;-69
2021/07/30 02:16:53;;;;;;;21.60;9.52;;;13.00;99.90;;;;;;5062483;28;20040;-69
2021/07/30 02:19:21;;;;;;;23.40;9.95;;;13.00;99.90;;;;;;5070467;28;20037;-68
2021/07/30 02:21:48;;;;;;;21.92;9.82;;;13.00;99.90;;;;;;5060620;28;20033;-69
2021/07/30 02:24:14;;;;;;;21.48;9.73;;;12.90;99.90;;;;;;5053924;28;20045;-68
2021/07/30 02:26:41;;;;;;;23.08;10.43;;;12.90;99.90;;;;;;5060918;28;20052;-68
2021/07/30 02:29:07;;;;;;;21.63;9.57;;;12.90;99.90;;;;;;5052783;28;20131;-68
2021/07/30 02:31:38;;;;;;;19.02;10.10;;;12.80;99.90;;;;;;5059655;28;20132;-68
2021/07/30 02:34:09;;;;;;;23.80;10.07;;;12.80;99.90;;;;;;5051829;28;20147;-69
2021/07/30 02:36:35;;;;;;;19.25;11.02;;;12.90;99.90;;;;;;5058449;28;20072;-69
2021/07/30 02:39:01;;;;;;;15.30;9.23;;;12.90;99.90;;;;;;5050877;28;20071;-69
2021/07/30 02:41:27;;;;;;;23.85;9.68;;;13.00;99.90;;;;;;5058240;28;20097;-69
2021/07/30 02:43:52;;;;;;;19.38;9.48;;;12.90;99.90;;;;;;5056927;28;20124;-69
2021/07/30 02:46:19;;;;;;;23.10;10.20;;;12.90;99.90;;;;;;5057067;28;20040;-69
2021/07/30 02:48:45;;;;;;;25.00;9.83;;;12.90;99.90;;;;;;5063557;28;20055;-68
2021/07/30 02:51:15;;;;;;;17.42;10.38;;;12.80;99.90;;;;;;5055127;28;20047;-69
2021/07/30 02:53:41;;;;;;;21.08;10.48;;;12.80;99.90;;;;;;5063091;28;20056;-69
2021/07/30 02:56:08;;;;;;;18.92;9.65;;;12.70;99.90;;;;;;5055191;28;20323;-68
2021/07/30 02:58:33;;;;;;;19.88;9.27;;;12.70;99.90;;;;;;5062412;28;20115;-68
2021/07/30 03:00:59;;;;;;;23.88;10.85;;;12.70;99.90;;;;;;5054347;28;20057;-69
2021/07/30 03:03:26;;;;;;;19.40;9.50;;;12.60;99.90;;;;;;5061747;28;20063;-69
2021/07/30 03:05:52;;;;;;;23.88;9.65;;;12.70;99.90;;;;;;5054714;28;20065;-68
2021/07/30 03:08:18;;;;;;;18.35;10.70;;;12.70;99.90;;;;;;5058566;28;20110;-69
2021/07/30 03:10:58;;;;;;;19.83;9.95;;;12.70;99.90;;;;;;5054207;28;20105;-68
2021/07/30 03:13:24;;;;;;;26.52;10.68;;;12.60;99.90;;;;;;5057343;28;20037;-68
2021/07/30 03:15:55;;;;;;;28.40;11.13;;;12.60;99.90;;;;;;5054680;28;20052;-68
2021/07/30 03:18:21;;;;;;;21.80;9.73;;;12.60;99.90;;;;;;5055031;28;20045;-68
2021/07/30 03:20:48;;;;;;;18.00;9.43;;;12.60;99.90;;;;;;5055230;28;20041;-68
2021/07/30 03:23:13;;;;;;;25.42;11.05;;;12.60;99.90;;;;;;5052585;28;20709;-68
2021/07/30 03:25:39;;;;;;;23.35;9.75;;;12.60;99.90;;;;;;5056256;28;20041;-69
2021/07/30 03:28:05;;;;;;;19.42;9.45;;;12.60;99.90;;;;;;5050239;28;20049;-68
2021/07/30 03:30:46;;;;;;;23.48;10.25;;;12.60;99.90;;;;;;5050718;28;20053;-68
2021/07/30 03:33:12;;;;;;;22.10;10.93;;;12.60;99.90;;;;;;5062398;28;20071;-68
2021/07/30 03:35:38;;;;;;;23.30;10.45;;;12.50;99.90;;;;;;5062272;28;20048;-69
2021/07/30 03:38:04;;;;;;;25.77;10.38;;;12.50;99.90;;;;;;5057785;28;20096;-69
2021/07/30 03:40:30;;;;;;;18.88;10.10;;;12.60;99.90;;;;;;5059067;28;20415;-69
2021/07/30 03:42:55;;;;;;;27.02;10.57;;;12.60;99.90;;;;;;5054113;28;20172;-69
2021/07/30 03:45:21;;;;;;;22.83;10.70;;;12.50;99.90;;;;;;5056145;28;20162;-68
2021/07/30 03:47:47;;;;;;;18.88;10.18;;;12.50;99.90;;;;;;5060577;28;20132;-68
2021/07/30 03:50:13;;;;;;;20.25;9.57;;;12.40;99.90;;;;;;5053906;28;20048;-68
2021/07/30 03:52:39;;;;;;;22.48;9.32;;;12.40;99.90;;;;;;5060778;28;20056;-68
2021/07/30 03:55:07;;;;;;;26.33;9.63;;;12.40;99.90;;;;;;5053337;28;20052;-69
2021/07/30 03:57:33;;;;;;;24.58;10.18;;;12.40;99.90;;;;;;5060060;28;20048;-70
2021/07/30 03:59:58;;;;;;;22.40;9.70;;;12.40;99.90;;;;;;5052728;28;20416;-69
2021/07/30 04:02:24;;;;;;;26.75;11.52;;;12.40;99.90;;;;;;5066768;28;20041;-69
2021/07/30 04:04:50;;;;;;;21.77;9.90;;;12.40;99.90;;;;;;5055555;28;20057;-69
2021/07/30 04:07:16;;;;;;;20.73;10.30;;;12.40;99.90;;;;;;5061259;28;20385;-69
2021/07/30 04:09:42;;;;;;;18.92;9.93;;;12.40;99.90;;;;;;5053471;28;20619;-69
2021/07/30 04:12:09;;;;;;;21.08;9.95;;;12.40;99.90;;;;;;5057735;28;20048;-68
2021/07/30 04:14:35;;;;;;;22.27;10.07;;;12.50;99.90;;;;;;5063660;28;20040;-69
2021/07/30 04:17:01;;;;;;;22.52;9.68;;;12.50;99.90;;;;;;5056311;28;20124;-69
2021/07/30 04:19:27;;;;;;;16.05;9.55;;;12.60;99.90;;;;;;5063156;28;20107;-69
2021/07/30 04:21:53;;;;;;;21.98;10.65;;;12.60;99.90;;;;;;5054905;28;20053;-69
2021/07/30 04:24:19;;;;;;;22.70;10.57;;;12.60;99.90;;;;;;5066513;28;20071;-68
2021/07/30 04:26:45;;;;;;;22.73;10.07;;;12.60;99.90;;;;;;5054262;28;20052;-68
2021/07/30 04:29:11;;;;;;;22.05;9.80;;;12.70;99.90;;;;;;5061269;28;20045;-68
2021/07/30 04:31:40;;;;;;;27.33;11.82;;;12.70;99.90;;;;;;5053437;28;20073;-68
2021/07/30 04:34:07;;;;;;;30.95;10.13;;;12.70;99.90;;;;;;5060675;28;20049;-68
2021/07/30 04:36:33;;;;;;;19.42;10.13;;;12.80;99.90;;;;;;5054044;28;20052;-68
2021/07/30 04:38:58;;;;;;;20.52;9.55;;;12.80;99.90;;;;;;5059305;28;20044;-68
2021/07/30 04:41:24;;;;;;;18.00;9.43;;;12.80;99.90;;;;;;5055823;28;20049;-69
2021/07/30 04:43:50;;;;;;;23.83;10.88;;;12.90;99.90;;;;;;5056065;28;20045;-68
2021/07/30 04:46:17;;;;;;;21.75;10.45;;;12.90;99.90;;;;;;5065780;28;20060;-69
2021/07/30 04:48:44;;;;;;;19.15;10.05;;;12.90;99.90;;;;;;5058102;28;20144;-68
2021/07/30 04:51:13;;;;;;;20.55;9.35;;;12.90;99.90;;;;;;5064852;28;20048;-68
2021/07/30 04:53:39;;;;;;;22.05;9.15;;;13.00;99.90;;;;;;5057978;28;20042;-68
2021/07/30 04:56:05;;;;;;;19.45;8.75;;;12.90;99.90;;;;;;5062439;28;20484;-68
2021/07/30 04:58:31;;;;;;;19.95;9.50;;;12.90;99.90;;;;;;5059070;28;20041;-68
2021/07/30 05:00:57;;;;;;;17.52;10.15;;;12.90;99.90;;;;;;5060053;28;20041;-68
2021/07/30 05:03:22;;;;;;;17.45;10.30;;;13.10;99.90;;;;;;5060187;28;20041;-69
2021/07/30 05:05:48;;;;;;;23.42;10.13;;;13.00;99.90;;;;;;5057835;28;20053;-68
2021/07/30 05:08:15;;;;;;;21.00;9.38;;;12.90;99.90;;;;;;5065094;28;20037;-67
2021/07/30 05:10:48;;;;;;;21.85;10.65;;;13.00;99.90;;;;;;5061733;28;20052;-69
2021/07/30 05:13:14;;;;;;;18.52;9.27;;;13.00;99.90;;;;;;5060454;28;20041;-68
2021/07/30 05:15:39;;;;;;;23.70;10.10;;;13.10;99.90;;;;;;5061844;28;20033;-69
2021/07/30 05:18:07;;;;;;;25.20;10.05;;;13.10;99.90;;;;;;5058853;28;20148;-67
2021/07/30 05:20:38;;;;;;;16.85;9.30;;;13.20;99.90;;;;;;5062027;28;20049;-68
2021/07/30 05:23:05;;;;;;;19.50;10.60;;;13.30;99.90;;;;;;5057004;28;20120;-68
2021/07/30 05:25:32;;;;;;;17.85;10.57;;;13.30;99.90;;;;;;5061212;28;20046;-68
2021/07/30 05:27:58;;;;;;;16.15;8.77;;;13.40;99.90;;;;;;5056113;28;20080;-68
2021/07/30 05:30:25;;;;;;;20.52;9.95;;;13.50;99.90;;;;;;5060607;28;20041;-68
2021/07/30 05:32:51;;;;;;;14.27;8.65;;;13.60;99.90;;;;;;5055333;28;20408;-68
2021/07/30 05:35:17;;;;;;;18.23;8.82;;;13.60;99.90;;;;;;5061497;28;20496;-67
2021/07/30 05:37:42;;;;;;;17.85;9.60;;;13.70;99.90;;;;;;5054787;28;20112;-67
2021/07/30 05:40:08;;;;;;;18.73;9.60;;;13.80;99.90;;;;;;5060343;28;20080;-68
2021/07/30 05:42:34;;;;;;;18.63;8.90;;;13.90;99.90;;;;;;5053376;28;20037;-67
2021/07/30 05:45:00;;;;;;;13.77;8.57;;;14.00;99.90;;;;;;5059442;28;20075;-67
2021/07/30 05:47:27;;;;;;;19.63;11.13;;;14.10;99.90;;;;;;5052135;28;20063;-67
2021/07/30 05:49:53;;;;;;;16.35;8.00;;;14.10;99.90;;;;;;5059012;28;20053;-68
2021/07/30 05:52:19;;;;;;;22.70;9.43;;;14.20;99.90;;;;;;5050939;28;20214;-69
2021/07/30 05:54:45;;;;;;;20.95;9.23;;;14.30;99.90;;;;;;5058464;28;20405;-69
2021/07/30 05:57:10;;;;;;;22.25;9.32;;;14.30;99.90;;;;;;5061746;28;20060;-68
2021/07/30 05:59:36;;;;;;;22.92;8.43;;;14.40;99.90;;;;;;5057042;28;20052;-68
2021/07/30 06:02:02;;;;;;;21.55;8.45;;;14.40;99.90;;;;;;5063972;28;20100;-68
2021/07/30 06:04:28;;;;;;;21.50;9.55;;;14.50;99.90;;;;;;5056488;28;20039;-68
2021/07/30 06:06:53;;;;;;;12.02;7.95;;;14.50;99.90;;;;;;5062885;28;20049;-67
2021/07/30 06:09:19;;;;;;;17.38;8.95;;;14.60;99.90;;;;;;5053014;28;20053;-69
2021/07/30 06:11:45;;;;;;;17.73;8.30;;;14.70;99.90;;;;;;5056729;28;20041;-68
2021/07/30 06:14:11;;;;;;;15.25;8.23;;;14.80;99.90;;;;;;5053790;28;20057;-67
2021/07/30 06:16:37;;;;;;;18.92;8.35;;;14.90;99.90;;;;;;5054453;28;20053;-67
2021/07/30 06:19:04;;;;;;;17.88;8.18;;;15.10;99.90;;;;;;5064454;28;20052;-68
2021/07/30 06:21:32;;;;;;;11.65;8.15;;;15.20;99.90;;;;;;5056256;28;20041;-67
2021/07/30 06:23:59;;;;;;;13.63;7.78;;;15.30;99.90;;;;;;5063519;28;20044;-67
2021/07/30 06:26:25;;;;;;;19.30;7.68;;;15.40;99.90;;;;;;5052517;28;20065;-68
2021/07/30 06:28:51;;;;;;;12.65;7.93;;;15.50;99.90;;;;;;5061810;28;20056;-67
2021/07/30 06:31:16;;;;;;;15.88;7.65;;;15.60;99.90;;;;;;5057424;28;20060;-68
2021/07/30 06:33:42;;;;;;;11.90;8.20;;;15.70;99.90;;;;;;5059387;28;20045;-68
2021/07/30 06:36:08;;;;;;;18.33;7.50;;;15.80;99.90;;;;;;5058515;28;20052;-67
2021/07/30 06:38:34;;;;;;;20.10;7.35;;;16.00;99.90;;;;;;5056733;28;20068;-67
2021/07/30 06:40:59;;;;;;;16.52;7.07;;;16.10;99.90;;;;;;5059528;28;20041;-67
2021/07/30 06:43:25;;;;;;;19.48;7.93;;;16.30;99.90;;;;;;5054217;28;20050;-67
2021/07/30 06:45:51;;;;;;;13.93;6.72;;;16.50;99.90;;;;;;5060789;28;20048;-67
2021/07/30 06:48:16;;;;;;;18.02;6.85;;;16.60;99.90;;;;;;5051749;28;20073;-67
2021/07/30 06:50:44;;;;;;;13.32;7.03;;;16.70;99.90;;;;;;5059988;28;20053;-67
2021/07/30 06:53:09;;;;;;;17.10;6.03;;;16.80;99.90;;;;;;5061722;28;20041;-68
2021/07/30 06:55:35;;;;;;;18.13;6.43;;;17.10;99.90;;;;;;5056211;28;20041;-67
2021/07/30 06:58:01;;;;;;;12.98;6.57;;;17.20;99.90;;;;;;5064867;28;20049;-68
2021/07/30 07:00:27;;;;;;;13.20;6.47;;;17.30;99.90;;;;;;5057625;28;20056;-68
2021/07/30 07:02:52;;;;;;;14.50;7.30;;;17.40;99.90;;;;;;5050519;28;20049;-68
2021/07/30 07:05:20;;;;;;;13.93;5.50;;;17.50;99.90;;;;;;5056552;28;20060;-68
2021/07/30 07:07:45;;;;;;;17.05;6.50;;;17.60;99.90;;;;;;5060225;28;20428;-68
2021/07/30 07:10:12;;;;;;;13.15;6.00;;;17.60;99.90;;;;;;5052519;28;20037;-68
2021/07/30 07:12:38;;;;;;;12.93;6.05;;;17.60;99.90;;;;;;5058877;28;20037;-68
2021/07/30 07:15:04;;;;;;;19.75;6.78;;;17.70;99.90;;;;;;5050991;28;20051;-68
2021/07/30 07:17:30;;;;;;;21.45;7.22;;;17.90;99.90;;;;;;5058142;28;20053;-68
2021/07/30 07:19:55;;;;;;;17.85;6.38;;;17.90;99.90;;;;;;5050430;28;20072;-68
2021/07/30 07:22:21;;;;;;;14.45;6.55;;;18.10;99.90;;;;;;5057234;28;20476;-68
2021/07/30 07:24:47;;;;;;;13.43;6.35;;;18.10;99.90;;;;;;5049751;28;20045;-67
2021/07/30 07:27:13;;;;;;;19.60;6.63;;;18.30;99.90;;;;;;5046445;28;20044;-67
2021/07/30 07:29:39;;;;;;;13.70;5.65;;;18.30;99.90;;;;;;5056033;28;20070;-68
2021/07/30 07:32:05;;;;;;;10.68;6.25;;;18.50;99.90;;;;;;5055294;28;20045;-67
2021/07/30 07:34:30;;;;;;;11.73;6.13;;;18.50;99.90;;;;;;5062638;28;20045;-67
2021/07/30 07:36:56;;;;;;;11.43;5.97;;;18.50;99.90;;;;;;5059368;28;20065;-68
2021/07/30 07:39:23;;;;;;;16.55;6.50;;;18.60;99.90;;;;;;5061923;28;20086;-68
2021/07/30 07:41:49;;;;;;;17.02;5.90;;;18.80;99.90;;;;;;5053967;28;20045;-67
2021/07/30 07:44:16;;;;;;;18.25;5.95;;;18.80;99.90;;;;;;5060731;28;20069;-68
2021/07/30 07:46:44;;;;;;;13.65;5.10;;;18.80;99.90;;;;;;5055172;28;20048;-67
2021/07/30 07:49:09;;;;;;;14.05;5.80;;;18.90;99.90;;;;;;5051727;28;20044;-67
2021/07/30 07:51:36;;;;;;;13.52;5.43;;;18.90;99.90;;;;;;5055701;28;20041;-67
2021/07/30 07:54:06;;;;;;;14.23;6.15;;;19.00;99.90;;;;;;5056408;28;20151;-68
2021/07/30 07:56:31;;;;;;;19.00;7.63;;;19.00;99.90;;;;;;5059076;28;20573;-67
2021/07/30 07:58:57;;;;;;;16.52;5.40;;;19.10;99.90;;;;;;5045217;28;20049;-68
2021/07/30 08:01:23;;;;;;;19.60;6.07;;;19.20;99.90;;;;;;5058034;28;20061;-67
2021/07/30 08:03:49;;;;;;;14.35;5.53;;;19.20;99.90;;;;;;5052256;28;20053;-67
2021/07/30 08:06:22;;;;;;;18.75;5.95;;;19.40;99.90;;;;;;5059338;28;20559;-67
2021/07/30 08:08:49;;;;;;;13.07;5.57;;;19.40;99.90;;;;;;5058791;28;20056;-67
2021/07/30 08:11:16;;;;;;;19.85;5.95;;;19.40;99.90;;;;;;5054284;28;20049;-68
2021/07/30 08:13:42;;;;;;;15.80;6.80;;;19.50;99.90;;;;;;5060253;28;20068;-68
2021/07/30 08:16:08;;;;;;;13.65;5.70;;;19.50;99.90;;;;;;5052886;28;20326;-67
2021/07/30 08:18:35;;;;;;;12.00;5.55;;;19.60;99.90;;;;;;5059874;28;20041;-67
2021/07/30 08:21:01;;;;;;;16.27;6.10;;;19.70;99.90;;;;;;5052013;28;20041;-67
2021/07/30 08:23:28;;;;;;;12.80;5.80;;;19.70;99.90;;;;;;5058934;28;20052;-66
2021/07/30 08:25:54;;;;;;;;;;;19.80;99.90;;;;;;5045574;28;20132;-66
2021/07/30 08:28:21;;;;;;;13.40;5.45;;;20.00;99.90;;;;;;5058191;28;19931;-66
2021/07/30 08:30:46;;;;;;;15.48;6.53;;;20.00;99.90;;;;;;5050582;28;20072;-67
2021/07/30 08:33:12;;;;;;;16.98;6.00;;;19.90;99.90;;;;;;5056736;28;20049;-67
2021/07/30 08:35:39;;;;;;;21.20;6.57;;;19.70;99.90;;;;;;5048929;28;20048;-68
2021/07/30 08:38:05;;;;;;;18.67;5.97;;;19.60;99.90;;;;;;5056191;28;20056;-67
2021/07/30 08:40:33;;;;;;;11.65;6.22;;;19.50;99.90;;;;;;5049068;28;20049;-67
2021/07/30 08:43:00;;;;;;;13.27;5.80;;;19.60;99.90;;;;;;5055486;28;20075;-67
2021/07/30 08:45:26;;;;;;;19.83;7.57;;;19.60;99.90;;;;;;5061585;28;20049;-67
2021/07/30 08:47:51;;;;;;;11.88;6.43;;;19.50;99.90;;;;;;5054736;28;20048;-67
2021/07/30 08:50:17;;;;;;;12.00;6.70;;;19.70;99.90;;;;;;5064321;28;20044;-67
2021/07/30 08:52:44;;;;;;;14.05;6.10;;;19.90;99.90;;;;;;5058004;28;20064;-67
2021/07/30 08:55:15;;;;;;;11.85;5.88;;;20.00;99.90;;;;;;5062845;28;20053;-68
2021/07/30 08:57:44;;;;;;;13.65;5.22;;;20.20;99.90;;;;;;5064255;28;20076;-67
2021/07/30 09:00:14;;;;;;;26.70;6.30;;;20.50;99.90;;;;;;5056488;28;20041;-67
2021/07/30 09:02:41;;;;;;;14.90;6.15;;;20.40;99.90;;;;;;5064693;28;20522;-67
2021/07/30 09:05:33;;;;;;;13.00;5.88;;;20.60;99.90;;;;;;5062118;28;20045;-67
2021/07/30 09:08:08;;;;;;;14.10;5.65;;;20.50;99.90;;;;;;5065187;28;20048;-68
2021/07/30 09:10:42;;;;;;;12.63;5.55;;;20.60;99.90;;;;;;5057372;28;20108;-67
2021/07/30 09:13:28;;;;;;;14.43;5.60;;;20.30;99.90;;;;;;5064131;28;20090;-67
2021/07/30 09:16:05;;;;;;;15.82;5.65;;;20.30;99.90;;;;;;5057669;28;20081;-67
2021/07/30 09:18:38;;;;;;;11.27;5.00;;;20.40;99.90;;;;;;5064129;28;20045;-67
2021/07/30 09:21:33;;;;;;;12.38;4.78;;;20.30;99.90;;;;;;5055962;28;20102;-67
2021/07/30 09:24:04;;;;;;;11.70;5.28;;;20.20;99.90;;;;;;5049536;28;20064;-67
2021/07/30 09:26:46;;;;;;;15.40;5.25;;;20.30;99.90;;;;;;5048445;28;20057;-67
2021/07/30 09:29:19;;;;;;;14.32;6.30;;;20.30;99.90;;;;;;5059750;28;20120;-67
2021/07/30 09:31:52;;;;;;;13.90;5.47;;;20.20;99.90;;;;;;5055925;28;20050;-66
2021/07/30 09:34:23;;;;;;;11.07;4.82;;;20.30;99.90;;;;;;5058969;28;20091;-67
2021/07/30 09:36:57;;;;;;;14.57;4.70;;;20.60;99.90;;;;;;5054857;28;20050;-67
2021/07/30 09:39:45;;;;;;;12.98;5.47;;;20.90;99.90;;;;;;5058589;28;20052;-67
2021/07/30 09:42:15;;;;;;;14.30;4.93;;;21.00;99.90;;;;;;5056816;28;20043;-67
2021/07/30 09:44:44;;;;;;;12.85;4.75;;;21.10;99.90;;;;;;5056036;28;20081;-67
2021/07/30 09:47:17;;;;;;;10.57;4.97;;;21.20;99.90;;;;;;5055412;28;20053;-66
2021/07/30 09:49:47;;;;;;;10.32;4.70;;;21.00;99.90;;;;;;5056437;28;20459;-67
2021/07/30 09:52:15;;;;;;;11.15;4.65;;;21.00;99.90;;;;;;5053206;28;20065;-66
2021/07/30 09:54:46;;;;;;;7.47;4.20;;;20.80;99.90;;;;;;5064471;28;20045;-67
2021/07/30 09:57:15;;;;;;;13.45;4.70;;;20.90;99.90;;;;;;5056837;28;20037;-67
2021/07/30 09:59:42;;;;;;;8.75;3.58;;;21.20;99.90;;;;;;5056672;28;20051;-66
2021/07/30 10:02:12;;;;;;;8.75;4.28;;;21.40;99.90;;;;;;5056923;28;20052;-67
2021/07/30 10:04:43;;;;;;;9.05;3.72;;;21.50;99.90;;;;;;5051509;28;20385;-66
2021/07/30 10:07:12;;;;;;;10.30;4.75;;;21.40;99.90;;;;;;5056205;28;20497;-66
2021/07/30 10:09:38;;;;;;;8.15;3.33;;;21.50;99.90;;;;;;5055021;28;20083;-66
2021/07/30 10:12:06;;;;;;;8.65;4.07;;;21.90;99.90;;;;;;5047016;28;20057;-66
2021/07/30 10:14:32;;;;;;;14.85;3.88;;;21.80;99.90;;;;;;5051608;28;20048;-66
2021/07/30 10:17:02;;;;;;;9.10;3.28;;;21.90;99.90;;;;;;5063612;28;20049;-66
2021/07/30 10:19:32;;;;;;;13.75;3.88;;;22.00;99.90;;;;;;5058248;28;20041;-66
2021/07/30 10:22:01;;;;;;;8.63;3.53;;;22.00;99.90;;;;;;5061502;28;20043;-67
2021/07/30 10:24:29;;;;;;;8.20;3.75;;;22.00;99.90;;;;;;5058689;28;20051;-66
2021/07/30 10:27:04;;;;;;;10.05;3.60;;;22.00;99.90;;;;;;5059629;28;20408;-66
2021/07/30 10:30:02;;;;;;;9.43;3.65;;;21.90;99.90;;;;;;5057942;28;20049;-66
2021/07/30 10:32:51;;;;;;;14.13;4.20;;;21.90;99.90;;;;;;5052214;28;20049;-67
2021/07/30 10:35:26;;;;;;;8.98;4.25;;;21.90;99.40;;;;;;5054527;28;20128;-67
2021/07/30 10:38:09;;;;;;;12.45;3.88;;;21.80;99.90;;;;;;5061090;28;20053;-66
2021/07/30 10:40:34;;;;;;;10.30;3.35;;;21.90;99.90;;;;;;5053041;28;20063;-66
2021/07/30 10:43:03;;;;;;;9.38;3.17;;;22.10;99.90;;;;;;5059962;28;20108;-66
2021/07/30 10:45:30;;;;;;;8.93;3.38;;;22.20;99.90;;;;;;5052381;28;20050;-66
2021/07/30 10:48:14;;;;;;;10.13;3.20;;;22.10;99.70;;;;;;5059682;28;20167;-66
2021/07/30 10:50:55;;;;;;;9.10;3.22;;;22.30;99.90;;;;;;5051534;28;20515;-67
2021/07/30 10:53:36;;;;;;;9.15;2.70;;;22.20;98.50;;;;;;5058530;28;20132;-67
2021/07/30 10:56:07;;;;;;;12.45;3.25;;;22.20;98.00;;;;;;5045671;28;20045;-67
2021/07/30 10:58:55;;;;;;;6.45;3.05;;;22.20;97.40;;;;;;5056509;28;20041;-67
2021/07/30 11:01:27;;;;;;;6.45;3.28;;;22.50;99.90;;;;;;5050956;28;20041;-67
2021/07/30 11:03:53;;;;;;;8.70;3.67;;;22.60;99.90;;;;;;5057789;28;20048;-67
2021/07/30 11:06:29;;;;;;;7.45;3.22;;;22.50;98.70;;;;;;5063776;28;20075;-67
2021/07/30 11:09:04;;;;;;;7.60;3.22;;;22.60;98.30;;;;;;5053196;28;20060;-67
2021/07/30 11:11:39;;;;;;;6.40;2.88;;;22.80;99.60;;;;;;5059289;28;20037;-67
2021/07/30 11:14:14;;;;;;;9.05;2.53;;;22.80;97.40;;;;;;5051511;28;20102;-67
2021/07/30 11:16:41;;;;;;;10.95;3.30;;;22.90;99.70;;;;;;5058528;28;20048;-67
2021/07/30 11:19:07;;;;;;;8.55;2.75;;;22.90;98.10;;;;;;5051415;28;20122;-67
2021/07/30 11:21:33;;;;;;;7.20;3.38;;;23.00;99.10;;;;;;5057719;28;20045;-67
2021/07/30 11:24:01;;;;;;;10.13;3.40;;;23.10;98.80;;;;;;5050916;28;20060;-67
2021/07/30 11:26:30;;;;;;;6.85;2.97;;;23.20;96.40;;;;;;5056887;28;20047;-67
2021/07/30 11:29:06;;;;;;;9.50;3.50;;;23.40;99.90;;;;;;5049767;28;20047;-67
2021/07/30 11:31:37;;;;;;;11.57;3.65;;;23.50;98.80;;;;;;5055873;28;20103;-67
2021/07/30 11:34:03;;;;;;;8.20;2.80;;;23.40;99.30;;;;;;5049082;28;20055;-66
2021/07/30 11:36:28;;;;;;;11.25;3.50;;;23.40;99.30;;;;;;5055538;28;20100;-66
2021/07/30 11:38:57;;;;;;;15.35;3.20;;;23.20;98.10;;;;;;5062433;28;20040;-66
2021/07/30 11:41:24;;;;;;;6.75;3.05;;;23.20;98.90;;;;;;5054436;28;20078;-66
2021/07/30 11:43:59;;;;;;;8.02;3.47;;;23.20;98.30;;;;;;5061123;28;20060;-66
2021/07/30 11:46:29;;;;;;;8.77;3.45;;;22.90;97.20;;;;;;5053903;28;20049;-67
2021/07/30 11:48:56;;;;;;;7.80;3.13;;;22.90;97.60;;;;;;5060271;28;20115;-67
2021/07/30 11:51:22;;;;;;;10.35;3.55;;;23.80;99.50;;;;;;5052497;28;20049;-67
2021/07/30 11:53:49;;;;;;;7.57;3.42;;;23.80;99.80;;;;;;5059735;28;20160;-67
2021/07/30 11:56:19;;;;;;;8.32;3.08;;;24.60;96.80;;;;;;5051898;28;20094;-67
2021/07/30 11:59:01;;;;;;;7.65;3.35;;;25.20;96.20;;;;;;5058896;28;20045;-67
2021/07/30 12:01:31;;;;;;;5.88;2.92;;;25.70;95.10;;;;;;5050916;28;20127;-67
2021/07/30 12:04:14;;;;;;;9.50;3.17;;;25.60;91.90;;;;;;5057996;28;20127;-67
2021/07/30 12:06:44;;;;;;;6.82;3.38;;;25.20;91.90;;;;;;5050643;28;20051;-68
2021/07/30 12:09:12;;;;;;;8.48;3.13;;;24.70;94.50;;;;;;5054343;28;20049;-68
2021/07/30 12:11:42;;;;;;;11.02;3.15;;;23.80;94.00;;;;;;5060619;28;20037;-68
2021/07/30 12:14:10;;;;;;;11.27;3.30;;;23.40;95.80;;;;;;5053371;28;20049;-68
2021/07/30 12:16:36;;;;;;;8.85;3.17;;;23.20;99.90;;;;;;5062771;28;20041;-68
2021/07/30 12:19:02;;;;;;;4.85;2.67;;;22.80;99.90;;;;;;5052740;28;20045;-67
2021/07/30 12:21:28;;;;;;;6.82;3.13;;;22.30;99.90;;;;;;5057995;28;20052;-68
2021/07/30 12:24:14;;;;;;;7.57;3.83;;;21.40;99.90;;;;;;5054901;28;20080;-68
2021/07/30 12:26:39;;;;;;;9.00;3.15;;;21.20;99.90;;;;;;5061775;28;20060;-68
2021/07/30 12:29:06;;;;;;;13.18;3.85;;;21.00;99.90;;;;;;5067013;28;20056;-69
2021/07/30 12:31:32;;;;;;;11.70;3.80;;;21.00;99.90;;;;;;5060371;28;20052;-68
2021/07/30 12:34:17;;;;;;;8.00;4.10;;;20.80;99.90;;;;;;5053274;28;20100;-68
2021/07/30 12:36:43;;;;;;;13.50;4.30;;;20.90;99.90;;;;;;5059963;28;20063;-69
2021/07/30 12:39:11;;;;;;;7.13;3.38;;;21.20;99.90;;;;;;5054050;28;20163;-69
2021/07/30 12:41:36;;;;;;;;;;;21.50;99.90;;;;;;5059997;28;20044;-70
2021/07/30 12:44:16;;;;;;;9.48;3.78;;;21.90;99.90;;;;;;5065973;28;20335;-69